sensor_id;sensor_type;location;lat;lon;timestamp;P1;durP1;ratioP1;P2;durP2;ratioP2
73321;SDS011;61549;37.044;22.128;2023-02-20T00:01:48;6.32;;;5.28;;
73321;SDS011;61549;37.044;22.128;2023-02-20T00:04:15;6.88;;;4.82;;
73321;SDS011;61549;37.044;22.128;2023-02-20T00:06:41;7.50;;;5.15;;
73321;SDS011;61549;37.044;22.128;2023-02-20T00:09:07;6.15;;;5.10;;
73321;SDS011;61549;37.044;22.128;2023-02-20T00:11:32;6.55;;;4.80;;
73321;SDS011;61549;37.044;22.128;2023-02-20T00:13:58;5.72;;;4.90;;
73321;SDS011;61549;37.044;22.128;2023-02-20T00:16:32;6.82;;;5.40;;
73321;SDS011;61549;37.044;22.128;2023-02-20T00:18:58;6.78;;;5.05;;
73321;SDS011;61549;37.044;22.128;2023-02-20T00:21:24;7.80;;;5.50;;
73321;SDS011;61549;37.044;22.128;2023-02-20T00:23:50;5.78;;;5.18;;
73321;SDS011;61549;37.044;22.128;2023-02-20T00:26:15;11.65;;;7.50;;
73321;SDS011;61549;37.044;22.128;2023-02-20T00:28:42;8.18;;;6.32;;
73321;SDS011;61549;37.044;22.128;2023-02-20T00:31:11;8.30;;;6.20;;
73321;SDS011;61549;37.044;22.128;2023-02-20T00:33:43;8.13;;;6.03;;
73321;SDS011;61549;37.044;22.128;2023-02-20T00:36:19;9.23;;;6.60;;
73321;SDS011;61549;37.044;22.128;2023-02-20T00:38:45;8.25;;;5.55;;
73321;SDS011;61549;37.044;22.128;2023-02-20T00:41:11;7.65;;;6.05;;
73321;SDS011;61549;37.044;22.128;2023-02-20T00:43:39;7.15;;;5.95;;
73321;SDS011;61549;37.044;22.128;2023-02-20T00:46:05;7.57;;;5.70;;
73321;SDS011;61549;37.044;22.128;2023-02-20T00:48:31;6.60;;;5.32;;
73321;SDS011;61549;37.044;22.128;2023-02-20T00:51:00;6.78;;;5.28;;
73321;SDS011;61549;37.044;22.128;2023-02-20T00:55:54;5.80;;;5.00;;
73321;SDS011;61549;37.044;22.128;2023-02-20T00:58:22;5.55;;;4.80;;
73321;SDS011;61549;37.044;22.128;2023-02-20T01:00:54;7.38;;;5.68;;
73321;SDS011;61549;37.044;22.128;2023-02-20T01:03:21;7.65;;;5.65;;
73321;SDS011;61549;37.044;22.128;2023-02-20T01:05:47;7.22;;;5.50;;
73321;SDS011;61549;37.044;22.128;2023-02-20T01:08:12;5.60;;;4.78;;
73321;SDS011;61549;37.044;22.128;2023-02-20T01:10:38;6.47;;;4.80;;
73321;SDS011;61549;37.044;22.128;2023-02-20T01:13:11;8.15;;;6.32;;
73321;SDS011;61549;37.044;22.128;2023-02-20T01:15:37;8.20;;;5.70;;
73321;SDS011;61549;37.044;22.128;2023-02-20T01:18:03;7.35;;;5.28;;
73321;SDS011;61549;37.044;22.128;2023-02-20T01:20:30;7.22;;;5.18;;
73321;SDS011;61549;37.044;22.128;2023-02-20T01:22:56;5.95;;;5.03;;
73321;SDS011;61549;37.044;22.128;2023-02-20T01:25:22;7.28;;;4.80;;
73321;SDS011;61549;37.044;22.128;2023-02-20T01:27:48;5.82;;;4.85;;
73321;SDS011;61549;37.044;22.128;2023-02-20T01:30:14;9.80;;;7.53;;
73321;SDS011;61549;37.044;22.128;2023-02-20T01:32:40;11.85;;;8.88;;
73321;SDS011;61549;37.044;22.128;2023-02-20T01:35:06;7.75;;;6.55;;
73321;SDS011;61549;37.044;22.128;2023-02-20T01:37:32;8.93;;;6.20;;
73321;SDS011;61549;37.044;22.128;2023-02-20T01:39:58;8.40;;;5.45;;
73321;SDS011;61549;37.044;22.128;2023-02-20T01:42:28;7.95;;;5.90;;
73321;SDS011;61549;37.044;22.128;2023-02-20T01:47:51;8.82;;;6.15;;
73321;SDS011;61549;37.044;22.128;2023-02-20T01:50:20;8.90;;;5.97;;
73321;SDS011;61549;37.044;22.128;2023-02-20T01:52:50;6.63;;;5.68;;
73321;SDS011;61549;37.044;22.128;2023-02-20T01:55:25;6.90;;;5.70;;
73321;SDS011;61549;37.044;22.128;2023-02-20T01:57:58;7.75;;;5.80;;
73321;SDS011;61549;37.044;22.128;2023-02-20T02:00:27;7.32;;;6.20;;
73321;SDS011;61549;37.044;22.128;2023-02-20T02:02:54;6.63;;;5.60;;
73321;SDS011;61549;37.044;22.128;2023-02-20T02:05:24;6.65;;;5.57;;
73321;SDS011;61549;37.044;22.128;2023-02-20T02:08:10;6.15;;;5.05;;
73321;SDS011;61549;37.044;22.128;2023-02-20T02:10:42;6.40;;;5.30;;
73321;SDS011;61549;37.044;22.128;2023-02-20T02:13:17;6.45;;;5.07;;
73321;SDS011;61549;37.044;22.128;2023-02-20T02:15:43;5.68;;;4.93;;
73321;SDS011;61549;37.044;22.128;2023-02-20T02:29:41;5.55;;;4.90;;
73321;SDS011;61549;37.044;22.128;2023-02-20T02:38:13;6.40;;;5.30;;
73321;SDS011;61549;37.044;22.128;2023-02-20T02:52:02;7.68;;;5.35;;
73321;SDS011;61549;37.044;22.128;2023-02-20T02:54:28;6.68;;;5.07;;
73321;SDS011;61549;37.044;22.128;2023-02-20T02:59:41;7.20;;;5.60;;
73321;SDS011;61549;37.044;22.128;2023-02-20T03:02:10;6.70;;;5.38;;
73321;SDS011;61549;37.044;22.128;2023-02-20T03:04:44;5.85;;;5.22;;
73321;SDS011;61549;37.044;22.128;2023-02-20T03:07:14;9.18;;;6.45;;
73321;SDS011;61549;37.044;22.128;2023-02-20T03:09:43;7.28;;;5.70;;
73321;SDS011;61549;37.044;22.128;2023-02-20T03:12:15;6.28;;;5.00;;
73321;SDS011;61549;37.044;22.128;2023-02-20T03:14:48;7.50;;;5.38;;
73321;SDS011;61549;37.044;22.128;2023-02-20T03:17:50;7.65;;;5.47;;
73321;SDS011;61549;37.044;22.128;2023-02-20T03:20:35;7.60;;;5.55;;
73321;SDS011;61549;37.044;22.128;2023-02-20T03:23:07;6.80;;;4.93;;
73321;SDS011;61549;37.044;22.128;2023-02-20T03:25:39;5.72;;;5.07;;
73321;SDS011;61549;37.044;22.128;2023-02-20T03:28:34;7.80;;;4.97;;
73321;SDS011;61549;37.044;22.128;2023-02-20T03:33:41;5.68;;;5.00;;
73321;SDS011;61549;37.044;22.128;2023-02-20T03:36:31;6.57;;;5.25;;
73321;SDS011;61549;37.044;22.128;2023-02-20T03:39:42;7.32;;;5.18;;
73321;SDS011;61549;37.044;22.128;2023-02-20T03:42:32;6.75;;;5.07;;
73321;SDS011;61549;37.044;22.128;2023-02-20T03:45:19;7.07;;;5.50;;
73321;SDS011;61549;37.044;22.128;2023-02-20T03:47:49;6.03;;;5.43;;
73321;SDS011;61549;37.044;22.128;2023-02-20T03:50:21;6.53;;;5.25;;
73321;SDS011;61549;37.044;22.128;2023-02-20T03:52:48;7.07;;;5.35;;
73321;SDS011;61549;37.044;22.128;2023-02-20T03:55:14;6.22;;;5.50;;
73321;SDS011;61549;37.044;22.128;2023-02-20T03:57:42;7.07;;;5.40;;
73321;SDS011;61549;37.044;22.128;2023-02-20T04:00:14;6.88;;;5.22;;
73321;SDS011;61549;37.044;22.128;2023-02-20T04:02:46;6.93;;;5.40;;
73321;SDS011;61549;37.044;22.128;2023-02-20T04:05:17;6.22;;;5.32;;
73321;SDS011;61549;37.044;22.128;2023-02-20T04:10:24;7.82;;;5.20;;
73321;SDS011;61549;37.044;22.128;2023-02-20T04:12:54;6.65;;;5.07;;
73321;SDS011;61549;37.044;22.128;2023-02-20T04:15:21;5.70;;;5.00;;
73321;SDS011;61549;37.044;22.128;2023-02-20T04:17:51;6.03;;;4.75;;
73321;SDS011;61549;37.044;22.128;2023-02-20T04:20:26;7.47;;;5.22;;
73321;SDS011;61549;37.044;22.128;2023-02-20T04:22:52;8.32;;;5.32;;
73321;SDS011;61549;37.044;22.128;2023-02-20T04:28:06;8.63;;;6.15;;
73321;SDS011;61549;37.044;22.128;2023-02-20T04:30:32;7.43;;;6.05;;
73321;SDS011;61549;37.044;22.128;2023-02-20T04:32:58;7.90;;;5.68;;
73321;SDS011;61549;37.044;22.128;2023-02-20T04:35:24;7.05;;;5.78;;
73321;SDS011;61549;37.044;22.128;2023-02-20T04:37:50;7.75;;;5.43;;
73321;SDS011;61549;37.044;22.128;2023-02-20T04:40:17;7.03;;;5.30;;
73321;SDS011;61549;37.044;22.128;2023-02-20T04:42:44;7.45;;;5.50;;
73321;SDS011;61549;37.044;22.128;2023-02-20T04:45:10;5.97;;;5.30;;
73321;SDS011;61549;37.044;22.128;2023-02-20T04:47:36;7.05;;;5.82;;
73321;SDS011;61549;37.044;22.128;2023-02-20T04:50:02;6.90;;;5.30;;
73321;SDS011;61549;37.044;22.128;2023-02-20T04:52:28;6.53;;;5.18;;
73321;SDS011;61549;37.044;22.128;2023-02-20T04:54:54;6.63;;;5.57;;
73321;SDS011;61549;37.044;22.128;2023-02-20T04:57:20;6.28;;;5.50;;
73321;SDS011;61549;37.044;22.128;2023-02-20T04:59:46;7.05;;;5.65;;
73321;SDS011;61549;37.044;22.128;2023-02-20T05:02:12;8.25;;;5.53;;
73321;SDS011;61549;37.044;22.128;2023-02-20T05:04:38;7.63;;;5.72;;
73321;SDS011;61549;37.044;22.128;2023-02-20T05:07:05;7.72;;;5.65;;
73321;SDS011;61549;37.044;22.128;2023-02-20T05:09:31;7.28;;;5.90;;
73321;SDS011;61549;37.044;22.128;2023-02-20T05:11:57;6.80;;;5.72;;
73321;SDS011;61549;37.044;22.128;2023-02-20T05:14:23;6.90;;;5.22;;
73321;SDS011;61549;37.044;22.128;2023-02-20T05:16:49;6.43;;;5.35;;
73321;SDS011;61549;37.044;22.128;2023-02-20T05:19:15;5.90;;;5.28;;
73321;SDS011;61549;37.044;22.128;2023-02-20T05:21:42;8.88;;;5.65;;
73321;SDS011;61549;37.044;22.128;2023-02-20T05:24:27;8.82;;;5.80;;
73321;SDS011;61549;37.044;22.128;2023-02-20T05:27:14;7.03;;;5.55;;
73321;SDS011;61549;37.044;22.128;2023-02-20T05:29:49;7.05;;;5.70;;
73321;SDS011;61549;37.044;22.128;2023-02-20T05:32:17;8.00;;;5.55;;
73321;SDS011;61549;37.044;22.128;2023-02-20T05:34:45;6.85;;;5.57;;
73321;SDS011;61549;37.044;22.128;2023-02-20T05:37:13;6.65;;;5.30;;
73321;SDS011;61549;37.044;22.128;2023-02-20T05:39:40;6.80;;;5.45;;
73321;SDS011;61549;37.044;22.128;2023-02-20T05:42:06;8.27;;;5.50;;
73321;SDS011;61549;37.044;22.128;2023-02-20T05:44:32;7.75;;;5.40;;
73321;SDS011;61549;37.044;22.128;2023-02-20T05:46:59;5.70;;;5.07;;
73321;SDS011;61549;37.044;22.128;2023-02-20T05:49:25;5.90;;;5.30;;
73321;SDS011;61549;37.044;22.128;2023-02-20T05:51:54;6.43;;;5.63;;
73321;SDS011;61549;37.044;22.128;2023-02-20T05:54:21;7.15;;;5.38;;
73321;SDS011;61549;37.044;22.128;2023-02-20T05:56:47;8.38;;;6.05;;
73321;SDS011;61549;37.044;22.128;2023-02-20T05:59:17;6.38;;;5.68;;
73321;SDS011;61549;37.044;22.128;2023-02-20T06:01:48;7.57;;;5.82;;
73321;SDS011;61549;37.044;22.128;2023-02-20T06:04:19;8.90;;;5.90;;
73321;SDS011;61549;37.044;22.128;2023-02-20T06:06:45;6.43;;;5.40;;
73321;SDS011;61549;37.044;22.128;2023-02-20T06:09:11;8.48;;;5.63;;
73321;SDS011;61549;37.044;22.128;2023-02-20T06:11:40;7.18;;;5.20;;
73321;SDS011;61549;37.044;22.128;2023-02-20T06:14:11;7.53;;;5.55;;
73321;SDS011;61549;37.044;22.128;2023-02-20T06:16:37;7.70;;;5.53;;
73321;SDS011;61549;37.044;22.128;2023-02-20T06:19:03;7.53;;;5.70;;
73321;SDS011;61549;37.044;22.128;2023-02-20T06:21:31;6.63;;;5.28;;
73321;SDS011;61549;37.044;22.128;2023-02-20T06:23:59;7.40;;;5.05;;
73321;SDS011;61549;37.044;22.128;2023-02-20T06:26:25;6.93;;;5.63;;
73321;SDS011;61549;37.044;22.128;2023-02-20T06:28:52;6.68;;;4.85;;
73321;SDS011;61549;37.044;22.128;2023-02-20T06:31:25;6.97;;;5.30;;
73321;SDS011;61549;37.044;22.128;2023-02-20T06:33:52;6.63;;;5.50;;
73321;SDS011;61549;37.044;22.128;2023-02-20T06:36:19;6.32;;;5.40;;
73321;SDS011;61549;37.044;22.128;2023-02-20T06:38:47;7.38;;;5.50;;
73321;SDS011;61549;37.044;22.128;2023-02-20T06:41:13;6.32;;;4.93;;
73321;SDS011;61549;37.044;22.128;2023-02-20T06:43:38;6.72;;;5.22;;
73321;SDS011;61549;37.044;22.128;2023-02-20T06:46:04;6.82;;;5.15;;
73321;SDS011;61549;37.044;22.128;2023-02-20T06:48:30;7.03;;;5.25;;
73321;SDS011;61549;37.044;22.128;2023-02-20T06:50:56;9.18;;;5.20;;
73321;SDS011;61549;37.044;22.128;2023-02-20T06:53:22;7.22;;;5.00;;
73321;SDS011;61549;37.044;22.128;2023-02-20T06:55:48;6.07;;;5.25;;
73321;SDS011;61549;37.044;22.128;2023-02-20T06:58:13;6.95;;;5.22;;
73321;SDS011;61549;37.044;22.128;2023-02-20T07:00:39;6.43;;;4.90;;
73321;SDS011;61549;37.044;22.128;2023-02-20T07:03:05;5.90;;;4.40;;
73321;SDS011;61549;37.044;22.128;2023-02-20T07:05:31;5.90;;;4.30;;
73321;SDS011;61549;37.044;22.128;2023-02-20T07:07:57;6.43;;;4.65;;
73321;SDS011;61549;37.044;22.128;2023-02-20T07:10:23;5.07;;;4.55;;
73321;SDS011;61549;37.044;22.128;2023-02-20T07:12:49;5.30;;;4.47;;
73321;SDS011;61549;37.044;22.128;2023-02-20T07:15:14;5.70;;;4.93;;
73321;SDS011;61549;37.044;22.128;2023-02-20T07:17:40;5.80;;;4.75;;
73321;SDS011;61549;37.044;22.128;2023-02-20T07:20:06;8.10;;;5.20;;
73321;SDS011;61549;37.044;22.128;2023-02-20T07:22:32;6.32;;;4.40;;
73321;SDS011;61549;37.044;22.128;2023-02-20T07:24:58;4.88;;;4.38;;
73321;SDS011;61549;37.044;22.128;2023-02-20T07:27:24;4.95;;;4.25;;
73321;SDS011;61549;37.044;22.128;2023-02-20T07:29:50;6.25;;;4.90;;
73321;SDS011;61549;37.044;22.128;2023-02-20T07:32:16;6.40;;;4.70;;
73321;SDS011;61549;37.044;22.128;2023-02-20T07:34:45;5.72;;;4.20;;
73321;SDS011;61549;37.044;22.128;2023-02-20T07:37:12;6.57;;;4.97;;
73321;SDS011;61549;37.044;22.128;2023-02-20T07:39:38;8.77;;;7.18;;
73321;SDS011;61549;37.044;22.128;2023-02-20T07:42:05;9.05;;;7.65;;
73321;SDS011;61549;37.044;22.128;2023-02-20T07:44:30;13.32;;;9.63;;
73321;SDS011;61549;37.044;22.128;2023-02-20T07:46:57;10.50;;;8.52;;
73321;SDS011;61549;37.044;22.128;2023-02-20T07:49:23;9.00;;;7.53;;
73321;SDS011;61549;37.044;22.128;2023-02-20T07:51:50;13.27;;;10.52;;
73321;SDS011;61549;37.044;22.128;2023-02-20T07:54:17;14.38;;;10.57;;
73321;SDS011;61549;37.044;22.128;2023-02-20T07:56:43;10.18;;;8.60;;
73321;SDS011;61549;37.044;22.128;2023-02-20T07:59:08;13.95;;;10.23;;
73321;SDS011;61549;37.044;22.128;2023-02-20T08:01:34;14.55;;;11.80;;
73321;SDS011;61549;37.044;22.128;2023-02-20T08:04:00;13.45;;;10.70;;
73321;SDS011;61549;37.044;22.128;2023-02-20T08:06:26;16.38;;;12.70;;
73321;SDS011;61549;37.044;22.128;2023-02-20T08:08:53;12.43;;;10.18;;
73321;SDS011;61549;37.044;22.128;2023-02-20T08:11:19;16.65;;;9.18;;
73321;SDS011;61549;37.044;22.128;2023-02-20T08:13:46;15.63;;;11.23;;
73321;SDS011;61549;37.044;22.128;2023-02-20T08:16:13;16.58;;;10.70;;
73321;SDS011;61549;37.044;22.128;2023-02-20T08:18:39;14.05;;;9.20;;
73321;SDS011;61549;37.044;22.128;2023-02-20T08:21:05;10.63;;;7.90;;
73321;SDS011;61549;37.044;22.128;2023-02-20T08:23:30;9.02;;;7.60;;
73321;SDS011;61549;37.044;22.128;2023-02-20T08:25:56;10.38;;;7.80;;
73321;SDS011;61549;37.044;22.128;2023-02-20T08:28:24;9.38;;;7.38;;
73321;SDS011;61549;37.044;22.128;2023-02-20T08:30:50;10.30;;;7.97;;
73321;SDS011;61549;37.044;22.128;2023-02-20T08:33:16;11.00;;;8.27;;
73321;SDS011;61549;37.044;22.128;2023-02-20T08:35:42;10.02;;;7.55;;
73321;SDS011;61549;37.044;22.128;2023-02-20T08:38:22;9.60;;;7.40;;
73321;SDS011;61549;37.044;22.128;2023-02-20T08:40:48;8.57;;;6.95;;
73321;SDS011;61549;37.044;22.128;2023-02-20T08:43:13;9.50;;;7.45;;
73321;SDS011;61549;37.044;22.128;2023-02-20T08:45:39;8.32;;;7.13;;
73321;SDS011;61549;37.044;22.128;2023-02-20T08:48:05;13.07;;;7.93;;
73321;SDS011;61549;37.044;22.128;2023-02-20T08:50:39;29.88;;;14.38;;
73321;SDS011;61549;37.044;22.128;2023-02-20T08:53:05;33.55;;;16.40;;
73321;SDS011;61549;37.044;22.128;2023-02-20T08:55:31;25.02;;;12.60;;
73321;SDS011;61549;37.044;22.128;2023-02-20T08:57:57;19.02;;;11.43;;
73321;SDS011;61549;37.044;22.128;2023-02-20T09:00:23;24.85;;;12.85;;
73321;SDS011;61549;37.044;22.128;2023-02-20T09:02:49;17.73;;;10.38;;
73321;SDS011;61549;37.044;22.128;2023-02-20T09:05:15;22.00;;;13.45;;
73321;SDS011;61549;37.044;22.128;2023-02-20T09:07:41;76.95;;;36.65;;
73321;SDS011;61549;37.044;22.128;2023-02-20T09:10:07;32.63;;;17.65;;
73321;SDS011;61549;37.044;22.128;2023-02-20T09:12:33;24.75;;;12.50;;
73321;SDS011;61549;37.044;22.128;2023-02-20T09:14:59;33.67;;;17.20;;
73321;SDS011;61549;37.044;22.128;2023-02-20T09:19:58;8.50;;;6.80;;
73321;SDS011;61549;37.044;22.128;2023-02-20T09:22:26;8.90;;;7.05;;
73321;SDS011;61549;37.044;22.128;2023-02-20T09:24:54;19.63;;;11.50;;
73321;SDS011;61549;37.044;22.128;2023-02-20T09:27:20;25.38;;;14.38;;
73321;SDS011;61549;37.044;22.128;2023-02-20T09:29:46;23.90;;;13.75;;
73321;SDS011;61549;37.044;22.128;2023-02-20T09:32:12;23.45;;;13.70;;
73321;SDS011;61549;37.044;22.128;2023-02-20T09:34:39;38.95;;;19.73;;
73321;SDS011;61549;37.044;22.128;2023-02-20T09:37:05;34.30;;;16.83;;
73321;SDS011;61549;37.044;22.128;2023-02-20T09:39:32;7.70;;;6.78;;
73321;SDS011;61549;37.044;22.128;2023-02-20T09:45:05;10.68;;;7.50;;
73321;SDS011;61549;37.044;22.128;2023-02-20T09:56:20;9.10;;;7.05;;
73321;SDS011;61549;37.044;22.128;2023-02-20T09:59:06;17.00;;;9.82;;
73321;SDS011;61549;37.044;22.128;2023-02-20T10:06:59;16.90;;;9.18;;
73321;SDS011;61549;37.044;22.128;2023-02-20T10:09:31;25.40;;;10.02;;
73321;SDS011;61549;37.044;22.128;2023-02-20T10:12:21;7.35;;;6.05;;
73321;SDS011;61549;37.044;22.128;2023-02-20T10:25:54;8.15;;;6.90;;
73321;SDS011;61549;37.044;22.128;2023-02-20T10:28:25;19.90;;;13.25;;
73321;SDS011;61549;37.044;22.128;2023-02-20T10:30:56;10.52;;;6.57;;
73321;SDS011;61549;37.044;22.128;2023-02-20T10:39:08;9.57;;;7.32;;
73321;SDS011;61549;37.044;22.128;2023-02-20T10:41:40;9.07;;;7.07;;
73321;SDS011;61549;37.044;22.128;2023-02-20T10:49:56;8.85;;;6.63;;
73321;SDS011;61549;37.044;22.128;2023-02-20T10:58:52;8.50;;;6.50;;
73321;SDS011;61549;37.044;22.128;2023-02-20T11:01:35;7.00;;;6.30;;
73321;SDS011;61549;37.044;22.128;2023-02-20T11:04:16;8.85;;;6.78;;
73321;SDS011;61549;37.044;22.128;2023-02-20T11:06:54;8.35;;;7.30;;
73321;SDS011;61549;37.044;22.128;2023-02-20T11:09:25;7.78;;;6.45;;
73321;SDS011;61549;37.044;22.128;2023-02-20T11:11:57;8.25;;;6.63;;
73321;SDS011;61549;37.044;22.128;2023-02-20T11:14:39;8.18;;;6.57;;
73321;SDS011;61549;37.044;22.128;2023-02-20T11:17:18;7.65;;;6.13;;
73321;SDS011;61549;37.044;22.128;2023-02-20T11:19:47;8.05;;;7.00;;
73321;SDS011;61549;37.044;22.128;2023-02-20T11:22:15;8.38;;;6.40;;
73321;SDS011;61549;37.044;22.128;2023-02-20T11:24:43;7.47;;;6.30;;
73321;SDS011;61549;37.044;22.128;2023-02-20T11:27:13;8.10;;;6.93;;
73321;SDS011;61549;37.044;22.128;2023-02-20T11:29:48;9.10;;;7.10;;
73321;SDS011;61549;37.044;22.128;2023-02-20T11:32:46;9.00;;;7.10;;
73321;SDS011;61549;37.044;22.128;2023-02-20T11:37:43;7.90;;;7.03;;
73321;SDS011;61549;37.044;22.128;2023-02-20T11:40:32;8.07;;;6.88;;
73321;SDS011;61549;37.044;22.128;2023-02-20T11:45:43;10.18;;;8.35;;
73321;SDS011;61549;37.044;22.128;2023-02-20T11:50:49;9.60;;;7.70;;
73321;SDS011;61549;37.044;22.128;2023-02-20T11:53:18;10.45;;;7.97;;
73321;SDS011;61549;37.044;22.128;2023-02-20T11:55:46;8.63;;;7.30;;
73321;SDS011;61549;37.044;22.128;2023-02-20T11:58:20;8.40;;;7.03;;
73321;SDS011;61549;37.044;22.128;2023-02-20T12:00:51;8.43;;;6.50;;
73321;SDS011;61549;37.044;22.128;2023-02-20T12:03:23;7.35;;;6.55;;
73321;SDS011;61549;37.044;22.128;2023-02-20T12:05:52;8.93;;;7.18;;
73321;SDS011;61549;37.044;22.128;2023-02-20T12:10:57;8.32;;;6.70;;
73321;SDS011;61549;37.044;22.128;2023-02-20T12:13:45;10.07;;;7.28;;
73321;SDS011;61549;37.044;22.128;2023-02-20T12:35:35;7.93;;;6.60;;
73321;SDS011;61549;37.044;22.128;2023-02-20T12:39:02;7.53;;;6.40;;
73321;SDS011;61549;37.044;22.128;2023-02-20T12:41:36;6.90;;;6.20;;
73321;SDS011;61549;37.044;22.128;2023-02-20T12:47:33;6.40;;;5.80;;
73321;SDS011;61549;37.044;22.128;2023-02-20T12:52:50;7.00;;;5.72;;
73321;SDS011;61549;37.044;22.128;2023-02-20T13:01:14;7.63;;;6.05;;
73321;SDS011;61549;37.044;22.128;2023-02-20T13:06:24;6.45;;;5.82;;
73321;SDS011;61549;37.044;22.128;2023-02-20T13:09:55;7.97;;;5.43;;
73321;SDS011;61549;37.044;22.128;2023-02-20T13:12:12;7.32;;;6.60;;
73321;SDS011;61549;37.044;22.128;2023-02-20T13:20:05;23.83;;;18.33;;
73321;SDS011;61549;37.044;22.128;2023-02-20T13:22:41;95.75;;;81.65;;
73321;SDS011;61549;37.044;22.128;2023-02-20T13:30:44;76.60;;;54.38;;
73321;SDS011;61549;37.044;22.128;2023-02-20T13:33:30;19.08;;;17.05;;
73321;SDS011;61549;37.044;22.128;2023-02-20T13:35:56;42.53;;;31.65;;
73321;SDS011;61549;37.044;22.128;2023-02-20T13:38:23;7.32;;;6.55;;
73321;SDS011;61549;37.044;22.128;2023-02-20T13:59:03;11.55;;;7.60;;
73321;SDS011;61549;37.044;22.128;2023-02-20T14:04:25;8.35;;;6.70;;
73321;SDS011;61549;37.044;22.128;2023-02-20T14:06:54;11.35;;;10.15;;
73321;SDS011;61549;37.044;22.128;2023-02-20T14:09:22;6.75;;;6.07;;
73321;SDS011;61549;37.044;22.128;2023-02-20T14:11:54;8.15;;;7.35;;
73321;SDS011;61549;37.044;22.128;2023-02-20T14:14:30;7.78;;;6.57;;
73321;SDS011;61549;37.044;22.128;2023-02-20T14:17:04;6.97;;;5.90;;
73321;SDS011;61549;37.044;22.128;2023-02-20T14:19:52;6.95;;;5.97;;
73321;SDS011;61549;37.044;22.128;2023-02-20T14:22:24;7.32;;;6.47;;
73321;SDS011;61549;37.044;22.128;2023-02-20T14:27:41;7.53;;;6.72;;
73321;SDS011;61549;37.044;22.128;2023-02-20T14:30:11;8.38;;;6.10;;
73321;SDS011;61549;37.044;22.128;2023-02-20T14:32:46;11.95;;;8.77;;
73321;SDS011;61549;37.044;22.128;2023-02-20T14:35:24;7.80;;;7.00;;
73321;SDS011;61549;37.044;22.128;2023-02-20T14:41:09;7.82;;;7.03;;
73321;SDS011;61549;37.044;22.128;2023-02-20T14:43:42;8.68;;;7.32;;
73321;SDS011;61549;37.044;22.128;2023-02-20T14:46:13;9.90;;;7.13;;
73321;SDS011;61549;37.044;22.128;2023-02-20T14:48:46;7.80;;;6.88;;
73321;SDS011;61549;37.044;22.128;2023-02-20T14:53:46;8.95;;;6.18;;
73321;SDS011;61549;37.044;22.128;2023-02-20T14:56:25;8.10;;;6.75;;
73321;SDS011;61549;37.044;22.128;2023-02-20T14:58:51;8.45;;;6.95;;
73321;SDS011;61549;37.044;22.128;2023-02-20T15:01:19;6.97;;;6.18;;
73321;SDS011;61549;37.044;22.128;2023-02-20T15:06:33;7.20;;;6.47;;
73321;SDS011;61549;37.044;22.128;2023-02-20T15:09:00;6.97;;;6.28;;
73321;SDS011;61549;37.044;22.128;2023-02-20T15:11:26;7.55;;;6.68;;
73321;SDS011;61549;37.044;22.128;2023-02-20T15:13:53;9.57;;;7.95;;
73321;SDS011;61549;37.044;22.128;2023-02-20T15:18:52;12.68;;;8.57;;
73321;SDS011;61549;37.044;22.128;2023-02-20T15:21:37;9.27;;;7.22;;
73321;SDS011;61549;37.044;22.128;2023-02-20T15:26:50;7.28;;;6.32;;
73321;SDS011;61549;37.044;22.128;2023-02-20T15:32:05;8.80;;;7.22;;
73321;SDS011;61549;37.044;22.128;2023-02-20T15:34:54;10.75;;;9.27;;
73321;SDS011;61549;37.044;22.128;2023-02-20T15:39:49;10.05;;;7.85;;
73321;SDS011;61549;37.044;22.128;2023-02-20T15:44:51;11.68;;;9.18;;
73321;SDS011;61549;37.044;22.128;2023-02-20T15:47:18;11.32;;;8.60;;
73321;SDS011;61549;37.044;22.128;2023-02-20T15:49:44;10.75;;;9.27;;
73321;SDS011;61549;37.044;22.128;2023-02-20T15:52:12;10.95;;;9.63;;
73321;SDS011;61549;37.044;22.128;2023-02-20T15:54:43;11.75;;;9.30;;
73321;SDS011;61549;37.044;22.128;2023-02-20T15:57:15;9.82;;;8.40;;
73321;SDS011;61549;37.044;22.128;2023-02-20T15:59:42;13.00;;;10.05;;
73321;SDS011;61549;37.044;22.128;2023-02-20T16:02:11;14.95;;;11.20;;
73321;SDS011;61549;37.044;22.128;2023-02-20T16:04:39;14.45;;;11.10;;
73321;SDS011;61549;37.044;22.128;2023-02-20T16:07:05;17.83;;;10.63;;
73321;SDS011;61549;37.044;22.128;2023-02-20T16:09:31;13.20;;;9.98;;
73321;SDS011;61549;37.044;22.128;2023-02-20T16:11:57;16.00;;;10.60;;
73321;SDS011;61549;37.044;22.128;2023-02-20T16:14:22;12.50;;;10.57;;
73321;SDS011;61549;37.044;22.128;2023-02-20T16:16:50;15.30;;;11.73;;
73321;SDS011;61549;37.044;22.128;2023-02-20T16:19:18;14.50;;;11.10;;
73321;SDS011;61549;37.044;22.128;2023-02-20T16:21:45;20.73;;;14.60;;
73321;SDS011;61549;37.044;22.128;2023-02-20T16:24:12;22.65;;;15.52;;
73321;SDS011;61549;37.044;22.128;2023-02-20T16:26:39;21.63;;;15.07;;
73321;SDS011;61549;37.044;22.128;2023-02-20T16:29:10;30.02;;;19.67;;
73321;SDS011;61549;37.044;22.128;2023-02-20T16:34:20;35.15;;;22.15;;
73321;SDS011;61549;37.044;22.128;2023-02-20T16:36:47;32.20;;;20.70;;
73321;SDS011;61549;37.044;22.128;2023-02-20T16:39:13;27.67;;;19.00;;
73321;SDS011;61549;37.044;22.128;2023-02-20T16:41:39;29.90;;;21.13;;
73321;SDS011;61549;37.044;22.128;2023-02-20T16:45:06;33.53;;;23.73;;
73321;SDS011;61549;37.044;22.128;2023-02-20T16:47:02;37.35;;;23.90;;
73321;SDS011;61549;37.044;22.128;2023-02-20T16:49:28;35.40;;;24.58;;
73321;SDS011;61549;37.044;22.128;2023-02-20T16:52:01;36.67;;;24.30;;
73321;SDS011;61549;37.044;22.128;2023-02-20T16:54:33;31.40;;;22.45;;
73321;SDS011;61549;37.044;22.128;2023-02-20T16:56:59;34.17;;;22.73;;
73321;SDS011;61549;37.044;22.128;2023-02-20T16:59:25;35.92;;;24.25;;
73321;SDS011;61549;37.044;22.128;2023-02-20T17:01:51;27.95;;;19.80;;
73321;SDS011;61549;37.044;22.128;2023-02-20T17:04:17;24.58;;;17.83;;
73321;SDS011;61549;37.044;22.128;2023-02-20T17:06:44;23.65;;;16.85;;
73321;SDS011;61549;37.044;22.128;2023-02-20T17:09:11;23.92;;;17.25;;
73321;SDS011;61549;37.044;22.128;2023-02-20T17:11:37;24.05;;;16.23;;
73321;SDS011;61549;37.044;22.128;2023-02-20T17:14:03;31.42;;;22.48;;
73321;SDS011;61549;37.044;22.128;2023-02-20T17:16:28;36.88;;;25.45;;
73321;SDS011;61549;37.044;22.128;2023-02-20T17:18:54;28.48;;;21.30;;
73321;SDS011;61549;37.044;22.128;2023-02-20T17:21:20;22.55;;;18.02;;
73321;SDS011;61549;37.044;22.128;2023-02-20T17:23:46;19.73;;;15.77;;
73321;SDS011;61549;37.044;22.128;2023-02-20T17:26:12;17.90;;;14.77;;
73321;SDS011;61549;37.044;22.128;2023-02-20T17:28:39;17.40;;;14.35;;
73321;SDS011;61549;37.044;22.128;2023-02-20T17:31:05;16.35;;;13.88;;
73321;SDS011;61549;37.044;22.128;2023-02-20T17:33:31;17.65;;;14.55;;
73321;SDS011;61549;37.044;22.128;2023-02-20T17:35:57;19.45;;;15.32;;
73321;SDS011;61549;37.044;22.128;2023-02-20T17:38:22;20.17;;;14.45;;
73321;SDS011;61549;37.044;22.128;2023-02-20T17:40:49;17.25;;;13.55;;
73321;SDS011;61549;37.044;22.128;2023-02-20T17:43:15;19.48;;;15.20;;
73321;SDS011;61549;37.044;22.128;2023-02-20T17:45:40;33.50;;;25.05;;
73321;SDS011;61549;37.044;22.128;2023-02-20T17:48:06;24.33;;;19.27;;
73321;SDS011;61549;37.044;22.128;2023-02-20T17:50:32;18.02;;;13.98;;
73321;SDS011;61549;37.044;22.128;2023-02-20T17:52:58;17.48;;;13.38;;
73321;SDS011;61549;37.044;22.128;2023-02-20T17:55:25;18.50;;;13.13;;
73321;SDS011;61549;37.044;22.128;2023-02-20T17:57:51;20.90;;;14.68;;
73321;SDS011;61549;37.044;22.128;2023-02-20T18:00:18;16.95;;;13.10;;